createdAt,value
2022-09-26T00:00:35.974Z,12.00
2022-09-26T00:05:39.499Z,12.00
2022-09-26T00:10:41.657Z,12.00
2022-09-26T00:15:43.750Z,11.90
2022-09-26T00:20:45.840Z,11.90
2022-09-26T00:25:49.899Z,11.90
2022-09-26T00:30:52.290Z,11.90
2022-09-26T00:35:55.921Z,11.80
2022-09-26T00:40:58.219Z,11.80
2022-09-26T00:46:10.227Z,11.80
2022-09-26T00:51:12.688Z,11.70
2022-09-26T00:56:19.873Z,11.80
2022-09-26T01:01:22.863Z,11.80
2022-09-26T01:06:25.014Z,11.80
2022-09-26T01:11:28.717Z,11.70
2022-09-26T01:16:34.252Z,11.80
2022-09-26T01:22:13.947Z,11.80
2022-09-26T01:28:09.529Z,11.60
2022-09-26T01:33:36.080Z,11.70
2022-09-26T01:38:48.112Z,11.70
2022-09-26T01:44:16.108Z,11.80
2022-09-26T01:49:46.379Z,11.80
2022-09-26T01:55:16.354Z,11.90
2022-09-26T02:00:19.765Z,11.90
2022-09-26T02:05:28.808Z,11.90
2022-09-26T02:10:36.773Z,11.90
2022-09-26T02:15:40.569Z,11.90
2022-09-26T02:20:48.826Z,11.90
2022-09-26T02:25:51.043Z,11.90
2022-09-26T02:30:54.776Z,11.90
2022-09-26T02:35:58.644Z,11.90
2022-09-26T02:41:34.453Z,11.90
2022-09-26T02:46:51.381Z,11.90
2022-09-26T02:52:20.219Z,11.90
2022-09-26T02:57:40.704Z,12.00
2022-09-26T03:02:58.539Z,12.10
2022-09-26T03:08:33.504Z,12.10
2022-09-26T03:13:38.415Z,12.20
2022-09-26T03:18:55.383Z,12.20
2022-09-26T03:23:59.331Z,12.30
2022-09-26T03:29:02.402Z,12.30
2022-09-26T03:34:06.733Z,12.30
2022-09-26T03:39:08.881Z,12.30
2022-09-26T03:44:37.089Z,12.40
2022-09-26T03:49:39.161Z,12.40
2022-09-26T03:54:41.828Z,12.50
2022-09-26T03:59:44.332Z,12.50
2022-09-26T04:04:47.419Z,12.60
2022-09-26T04:09:50.992Z,12.60
2022-09-26T04:14:54.022Z,12.60
2022-09-26T04:19:56.399Z,12.70
2022-09-26T04:24:58.889Z,12.70
2022-09-26T04:30:01.164Z,12.80
2022-09-26T04:35:29.376Z,12.80
2022-09-26T04:40:32.177Z,12.90
2022-09-26T04:45:45.363Z,12.90
2022-09-26T04:50:49.148Z,12.90
2022-09-26T04:55:54.387Z,12.80
2022-09-26T05:01:01.637Z,12.70
2022-09-26T05:06:15.514Z,12.70
2022-09-26T05:11:19.787Z,12.70
2022-09-26T05:16:22.147Z,12.60
2022-09-26T05:21:26.583Z,12.60
2022-09-26T05:26:46.517Z,12.60
2022-09-26T05:31:51.533Z,12.60
2022-09-26T05:36:56.145Z,12.60
2022-09-26T05:41:59.790Z,12.70
2022-09-26T05:47:02.410Z,12.70
2022-09-26T05:52:04.673Z,12.70
2022-09-26T05:57:07.072Z,12.70
2022-09-26T06:02:21.071Z,12.70
2022-09-26T06:07:45.844Z,12.70
2022-09-26T06:13:07.886Z,12.80
2022-09-26T06:18:28.150Z,12.80
2022-09-26T06:23:31.897Z,12.90
2022-09-26T06:28:36.321Z,12.90
2022-09-26T06:33:39.174Z,12.90
2022-09-26T06:38:57.325Z,12.90
2022-09-26T06:43:59.589Z,12.90
2022-09-26T06:49:24.876Z,12.90
2022-09-26T06:54:37.088Z,12.80
2022-09-26T06:59:39.187Z,12.90
2022-09-26T07:04:53.595Z,12.90
2022-09-26T07:10:08.183Z,13.00
2022-09-26T07:15:20.545Z,13.00
2022-09-26T07:20:23.619Z,13.00
2022-09-26T07:25:46.919Z,13.10
2022-09-26T07:30:49.761Z,13.10
2022-09-26T07:36:10.877Z,13.20
2022-09-26T07:41:13.661Z,13.30
2022-09-26T07:46:34.394Z,13.30
2022-09-26T07:51:39.097Z,13.40
2022-09-26T07:56:45.699Z,13.50
2022-09-26T08:02:07.191Z,13.50
2022-09-26T08:07:12.604Z,13.60
2022-09-26T08:12:23.305Z,13.70
2022-09-26T08:17:43.891Z,14.00
2022-09-26T08:22:46.501Z,14.10
2022-09-26T08:27:53.213Z,14.20
2022-09-26T08:33:01.341Z,14.20
2022-09-26T08:38:09.470Z,14.30
2022-09-26T08:43:39.829Z,14.50
2022-09-26T08:49:24.903Z,14.70
2022-09-26T08:54:43.401Z,14.80
2022-09-26T08:59:47.460Z,15.00
2022-09-26T09:05:01.166Z,15.00
2022-09-26T09:10:08.079Z,15.10
2022-09-26T09:15:44.383Z,15.10
2022-09-26T09:21:42.499Z,15.20
2022-09-26T09:32:42.191Z,15.20
2022-09-26T09:38:05.591Z,15.30
2022-09-26T09:43:39.171Z,15.30
2022-09-26T09:48:42.509Z,15.40
2022-09-26T09:54:05.835Z,15.40
2022-09-26T09:59:39.189Z,15.50
2022-09-26T10:04:53.315Z,15.70
2022-09-26T10:09:56.154Z,15.50
2022-09-26T10:15:36.526Z,14.40
2022-09-26T10:20:55.481Z,14.10
2022-09-26T10:26:10.919Z,14.00
2022-09-26T10:31:29.614Z,13.90
2022-09-26T10:37:17.279Z,13.90
2022-09-26T10:42:22.160Z,13.50
2022-09-26T10:47:31.481Z,13.60
2022-09-26T10:53:02.239Z,13.80
2022-09-26T10:58:14.205Z,14.00
2022-09-26T11:03:34.591Z,14.20
2022-09-26T11:09:03.371Z,14.60
2022-09-26T11:14:32.742Z,14.90
2022-09-26T11:20:02.314Z,15.00
2022-09-26T11:25:22.610Z,15.10
2022-09-26T11:30:26.346Z,15.20
2022-09-26T11:35:33.610Z,15.40
2022-09-26T11:41:07.338Z,15.30
2022-09-26T11:46:25.722Z,15.30
2022-09-26T11:52:08.548Z,15.30
2022-09-26T11:57:28.851Z,15.20
2022-09-26T12:02:57.476Z,15.10
2022-09-26T12:08:19.269Z,15.20
2022-09-26T12:13:43.131Z,15.30
2022-09-26T12:18:48.203Z,15.90
2022-09-26T12:23:52.860Z,16.50
2022-09-26T12:29:14.919Z,16.50
2022-09-26T12:34:41.353Z,16.40
2022-09-26T12:40:15.145Z,16.60
2022-09-26T12:46:14.953Z,16.60
2022-09-26T12:51:35.622Z,16.50
2022-09-26T12:57:02.750Z,16.30
2022-09-26T13:02:27.982Z,15.90
2022-09-26T13:07:36.838Z,15.80
2022-09-26T13:13:10.198Z,15.70
2022-09-26T13:18:26.668Z,15.70
2022-09-26T13:23:45.282Z,15.80
2022-09-26T13:29:22.192Z,15.80
2022-09-26T13:34:44.520Z,15.90
2022-09-26T13:40:05.288Z,16.00
2022-09-26T13:45:07.487Z,16.00
2022-09-26T13:50:44.943Z,15.80
2022-09-26T13:56:30.783Z,16.10
2022-09-26T14:01:33.821Z,16.10
2022-09-26T14:06:36.092Z,16.20
2022-09-26T14:11:52.203Z,16.40
2022-09-26T14:16:57.548Z,16.20
2022-09-26T14:22:25.752Z,16.40
2022-09-26T14:27:41.662Z,16.80
2022-09-26T14:32:46.051Z,16.70
2022-09-26T14:37:52.411Z,16.40
2022-09-26T14:43:04.838Z,16.40
2022-09-26T14:48:12.735Z,16.20
2022-09-26T14:53:24.314Z,16.70
2022-09-26T14:58:46.269Z,17.10
2022-09-26T15:04:04.303Z,17.00
2022-09-26T15:09:11.737Z,17.40
2022-09-26T15:14:25.155Z,16.80
2022-09-26T15:19:34.437Z,16.10
2022-09-26T15:24:36.919Z,15.80
2022-09-26T15:29:47.600Z,15.70
2022-09-26T15:34:51.581Z,15.50
2022-09-26T15:39:53.726Z,15.50
2022-09-26T15:45:00.937Z,15.60
2022-09-26T15:50:29.376Z,15.50
2022-09-26T15:55:54.891Z,15.30
2022-09-26T16:00:59.241Z,15.30
2022-09-26T16:06:01.440Z,15.30
2022-09-26T16:11:08.031Z,15.10
2022-09-26T16:16:18.903Z,15.30
2022-09-26T16:21:26.936Z,15.50
2022-09-26T16:26:40.540Z,15.30
2022-09-26T16:31:49.029Z,15.00
2022-09-26T16:36:51.864Z,14.90
2022-09-26T16:42:03.168Z,14.80
2022-09-26T16:47:29.148Z,14.90
2022-09-26T16:52:34.861Z,14.80
2022-09-26T16:57:39.962Z,14.70
2022-09-26T17:02:42.390Z,14.60
2022-09-26T17:07:46.509Z,14.60
2022-09-26T17:12:51.510Z,14.60
2022-09-26T17:17:54.290Z,14.50
2022-09-26T17:22:56.673Z,14.40
2022-09-26T17:28:02.114Z,14.40
2022-09-26T17:33:05.085Z,14.40
2022-09-26T17:38:10.594Z,14.30
2022-09-26T17:43:12.821Z,14.30
2022-09-26T17:48:31.314Z,14.30
2022-09-26T17:53:38.305Z,14.20
2022-09-26T17:58:44.339Z,14.10
2022-09-26T18:03:46.611Z,14.10
2022-09-26T18:08:49.176Z,14.00
2022-09-26T18:13:54.653Z,13.90
2022-09-26T18:18:56.888Z,13.90
2022-09-26T18:24:02.315Z,13.90
2022-09-26T18:29:08.207Z,13.90
2022-09-26T18:34:13.599Z,13.90
2022-09-26T18:39:15.949Z,13.90
2022-09-26T18:44:18.499Z,13.90
2022-09-26T18:49:20.951Z,13.50
2022-09-26T18:54:24.778Z,13.20
2022-09-26T18:59:31.018Z,13.10
2022-09-26T19:04:33.950Z,13.00
2022-09-26T19:09:36.675Z,13.10
2022-09-26T19:14:38.754Z,13.10
2022-09-26T19:19:40.850Z,13.10
2022-09-26T19:24:52.204Z,13.20
2022-09-26T19:30:15.534Z,13.20
2022-09-26T19:35:30.475Z,13.30
2022-09-26T19:40:32.820Z,13.30
2022-09-26T19:45:35.679Z,13.30
2022-09-26T19:50:39.882Z,13.40
2022-09-26T19:55:42.497Z,13.40
2022-09-26T20:00:47.880Z,13.30
2022-09-26T20:05:50.385Z,13.40
2022-09-26T20:10:54.742Z,13.40
2022-09-26T20:15:57.047Z,13.40
2022-09-26T20:20:59.195Z,13.40
2022-09-26T20:26:02.029Z,13.40
2022-09-26T20:31:04.232Z,13.40
2022-09-26T20:36:06.942Z,13.40
2022-09-26T20:41:23.252Z,13.40
2022-09-26T20:46:26.551Z,13.40
2022-09-26T20:51:30.962Z,13.40
2022-09-26T20:56:33.379Z,13.40
2022-09-26T21:01:35.487Z,13.40
2022-09-26T21:06:37.690Z,13.50
2022-09-26T21:11:41.632Z,13.50
2022-09-26T21:16:47.642Z,13.50
2022-09-26T21:21:51.698Z,13.50
2022-09-26T21:27:04.204Z,13.50
2022-09-26T21:32:09.751Z,13.40
2022-09-26T21:37:11.867Z,13.50
2022-09-26T21:42:14.258Z,13.50
2022-09-26T21:47:16.364Z,13.50
2022-09-26T21:52:42.304Z,13.50
2022-09-26T21:57:49.078Z,13.40
2022-09-26T22:02:51.154Z,13.40
2022-09-26T22:07:53.340Z,13.50
2022-09-26T22:12:55.723Z,13.40
2022-09-26T22:17:57.882Z,13.50
2022-09-26T22:22:59.994Z,13.40
2022-09-26T22:28:02.456Z,13.40
2022-09-26T22:33:04.549Z,13.40
2022-09-26T22:38:06.608Z,13.40
2022-09-26T22:43:10.189Z,13.30
2022-09-26T22:48:12.328Z,13.30
2022-09-26T22:53:14.467Z,13.30
2022-09-26T22:58:16.617Z,13.10
2022-09-26T23:03:19.018Z,13.10
2022-09-26T23:08:21.143Z,13.00
2022-09-26T23:13:26.536Z,13.00
2022-09-26T23:18:30.555Z,13.00
2022-09-26T23:23:32.699Z,13.00
2022-09-26T23:28:34.998Z,13.00
2022-09-26T23:33:37.886Z,13.00
2022-09-26T23:38:40.713Z,13.10
2022-09-26T23:43:43.799Z,13.10
2022-09-26T23:48:45.935Z,13.10
2022-09-26T23:53:48.318Z,13.10
2022-09-26T23:58:50.425Z,13.20
